Latest Weather Observations for Cape Ferguson

IDQ60801

Issued at 11:32 pm EST Monday 6 July 2015 (issued every 30 minutes, with the page automatically refreshed every 10 minutes)

About weather observations | Map of weather stations | Latest weather observations for QLD | Other Formats
Station Details ID: 032182 Name: CAPE FERGUSON NTC AWS Lat: -19.28 Lon: 147.06 Height: 0.0 m
Data from the previous 72 hours. | See also: Recent months for locations in Queensland
Date/Time
EST
Temp
°C
App
Temp
°C
Dew
Point
Rel
Hum
%
Delta-T
°C
Wind Press
QNH
hPa
Press
MSL
hPa
Rain
since 9 am
mm
Dir
 
Spd
km/h
Gust
km/h
Spd
kts
Gust
kts
06/11:30pm 22.1 - - - - E 15 17 8 9 1016.8 1016.8 -
06/11:00pm 22.2 - - - - E 13 15 7 8 1017.0 1017.0 -
06/10:30pm 22.1 - - - - E 13 17 7 9 1017.1 1017.1 -
06/10:00pm 22.1 - - - - E 11 15 6 8 1017.1 1017.1 -
06/09:30pm 22.3 - - - - E 11 15 6 8 1017.1 1017.1 -
06/09:00pm 22.2 - - - - E 11 13 6 7 1017.0 1017.0 -
06/08:30pm 22.0 - - - - ENE 7 11 4 6 1016.9 1016.9 -
06/08:00pm 22.0 - - - - ENE 6 9 3 5 1016.7 1016.7 -
06/07:30pm 21.8 - - - - ENE 6 9 3 5 1016.4 1016.4 -
06/07:00pm 21.8 - - - - ENE 6 9 3 5 1016.2 1016.2 -
06/06:30pm 21.9 - - - - ENE 6 11 3 6 1015.9 1015.9 -
06/06:00pm 21.9 - - - - ENE 7 13 4 7 1015.8 1015.8 -
06/05:30pm 21.9 - - - - ENE 7 15 4 8 1015.7 1015.7 -
06/05:00pm 22.0 - - - - ENE 13 17 7 9 1015.6 1015.6 -
06/04:00pm 21.8 - - - - ENE 15 17 8 9 1015.5 1015.5 -
06/03:30pm 21.7 - - - - ENE 15 19 8 10 1015.6 1015.6 -
06/03:00pm 21.6 - - - - ENE 15 19 8 10 1015.7 1015.7 -
06/02:30pm 21.5 - - - - ENE 17 20 9 11 1015.8 1015.8 -
06/02:00pm 21.4 - - - - E 15 17 8 9 1016.2 1016.2 -
06/01:30pm 21.4 - - - - E 13 17 7 9 1016.4 1016.4 -
06/01:00pm 21.4 - - - - ENE 7 11 4 6 1016.9 1016.9 -
06/12:30pm 21.2 - - - - E 7 11 4 6 1017.5 1017.5 -
06/12:00pm 21.2 - - - - SE 6 7 3 4 1018.0 1018.0 -
06/11:30am 21.0 - - - - E 11 15 6 8 1018.4 1018.4 -
06/11:00am 20.8 - - - - SE 11 17 6 9 1018.7 1018.7 -
06/10:30am 20.8 - - - - SSE 7 9 4 5 1018.7 1018.7 -
06/10:00am 20.5 - - - - SSE 11 15 6 8 1018.8 1018.8 -
06/09:00am 19.9 - - - - SSE 11 15 6 8 1018.7 1018.7 -
06/08:30am 19.7 - - - - SSE 11 13 6 7 1018.4 1018.4 -
06/08:00am 19.6 - - - - SE 13 13 7 7 1018.1 1018.1 -
06/07:30am 19.4 - - - - SSE 9 11 5 6 1017.9 1017.9 -
06/07:00am 19.3 - - - - SSE 11 13 6 7 1017.7 1017.7 -
06/06:30am 19.4 - - - - SSE 9 11 5 6 1017.5 1017.5 -
06/06:00am 19.6 - - - - SSE 7 11 4 6 1017.4 1017.4 -
06/05:30am 19.8 - - - - S 7 9 4 5 1017.3 1017.3 -
06/05:00am 20.1 - - - - S 9 13 5 7 1017.4 1017.4 -
06/04:30am 20.3 - - - - SSE 11 15 6 8 1017.3 1017.3 -
06/04:00am 20.4 - - - - SSE 13 17 7 9 1017.3 1017.3 -
06/03:30am 20.6 - - - - SSE 13 19 7 10 1017.4 1017.4 -
06/03:00am 20.6 - - - - SSE 15 19 8 10 1017.5 1017.5 -
06/02:30am 20.7 - - - - SSE 11 17 6 9 1017.5 1017.5 -
06/02:00am 20.7 - - - - SSE 11 13 6 7 1017.8 1017.8 -
06/01:30am 20.8 - - - - SSE 13 15 7 8 1018.2 1018.2 -
06/01:00am 20.9 - - - - SE 13 17 7 9 1018.3 1018.3 -
06/12:30am 21.0 - - - - SSE 11 13 6 7 1018.4 1018.4 -
06/12:00am 21.2 - - - - SSE 9 13 5 7 1018.4 1018.4 -
 
Date/Time
EST
Temp
°C
App
Temp
°C
Dew
Point
Rel
Hum
%
Delta-T
°C
Wind Press
QNH
hPa
Press
MSL
hPa
Rain
since 9 am
mm
Dir
 
Spd
km/h
Gust
km/h
Spd
kts
Gust
kts
05/11:30pm 21.1 - - - - SSE 9 11 5 6 1018.6 1018.6 -
05/11:00pm 21.5 - - - - SE 15 17 8 9 1018.8 1018.8 -
05/10:30pm 21.7 - - - - ESE 17 20 9 11 1018.9 1018.9 -
05/10:00pm 21.7 - - - - ESE 20 24 11 13 1018.9 1018.9 -
05/09:30pm 21.8 - - - - ESE 22 26 12 14 1018.9 1018.9 -
05/09:00pm 21.8 - - - - ESE 19 22 10 12 1018.8 1018.8 -
05/08:30pm 21.6 - - - - ESE 19 24 10 13 1018.7 1018.7 -
05/08:00pm 21.7 - - - - ESE 19 22 10 12 1018.5 1018.5 -
05/07:30pm 21.9 - - - - ESE 19 24 10 13 1018.2 1018.2 -
05/07:00pm 22.0 - - - - ESE 19 24 10 13 1017.8 1017.8 -
05/06:30pm 22.2 - - - - E 19 24 10 13 1017.5 1017.5 -
05/06:00pm 22.1 - - - - E 22 26 12 14 1017.2 1017.2 -
05/05:30pm 21.9 - - - - E 20 24 11 13 1017.1 1017.1 -
05/05:00pm 21.9 - - - - E 20 24 11 13 1017.0 1017.0 -
05/04:30pm 21.9 - - - - E 22 28 12 15 1016.9 1016.9 -
05/04:00pm 21.8 - - - - E 24 30 13 16 1016.8 1016.8 -
05/03:30pm 21.9 - - - - E 22 28 12 15 1016.8 1016.8 -
05/03:00pm 21.8 - - - - E 24 28 13 15 1016.9 1016.9 -
05/02:30pm 21.7 - - - - E 24 30 13 16 1017.2 1017.2 -
05/02:00pm 21.8 - - - - E 24 30 13 16 1017.4 1017.4 -
05/01:30pm 21.4 - - - - E 24 28 13 15 1017.7 1017.7 -
05/01:00pm 21.3 - - - - E 24 28 13 15 1017.9 1017.9 -
05/12:30pm 21.3 - - - - E 20 24 11 13 1018.5 1018.5 -
05/12:00pm 21.3 - - - - ESE 11 15 6 8 1018.7 1018.7 -
05/11:30am 21.1 - - - - SE 11 17 6 9 1019.1 1019.1 -
05/11:00am 20.7 - - - - SE 13 17 7 9 1019.6 1019.6 -
05/10:30am 20.3 - - - - SE 15 20 8 11 1019.7 1019.7 -
05/10:00am 20.0 - - - - SE 17 20 9 11 1019.7 1019.7 -
05/09:30am 19.7 - - - - SSE 19 24 10 13 1019.6 1019.6 -
05/09:00am 19.6 - - - - SSE 19 22 10 12 1019.6 1019.6 -
05/08:30am 19.2 - - - - SSE 19 22 10 12 1019.2 1019.2 -
05/08:00am 19.3 - - - - S 19 22 10 12 1019.0 1019.0 -
05/07:30am 19.4 - - - - S 13 19 7 10 1018.7 1018.7 -
05/07:00am 19.3 - - - - S 17 22 9 12 1018.5 1018.5 -
05/06:30am 19.2 - - - - S 15 20 8 11 1018.2 1018.2 -
05/06:00am 19.1 - - - - S 15 19 8 10 1018.0 1018.0 -
05/05:30am 19.2 - - - - SSE 15 19 8 10 1017.7 1017.7 -
05/05:00am 19.1 - - - - SSE 19 22 10 12 1017.6 1017.6 -
05/04:30am 19.3 - - - - SSE 19 22 10 12 1017.6 1017.6 -
05/04:00am 19.2 - - - - SSE 15 20 8 11 1017.4 1017.4 -
05/03:30am 19.2 - - - - SSE 17 20 9 11 1017.4 1017.4 -
05/03:00am 19.0 - - - - S 15 22 8 12 1017.5 1017.5 -
05/02:30am 19.2 - - - - S 11 17 6 9 1017.7 1017.7 -
05/02:00am 19.6 - - - - S 13 20 7 11 1017.9 1017.9 -
05/01:30am 19.7 - - - - SSE 17 20 9 11 1018.2 1018.2 -
05/01:00am 19.8 - - - - SSE 15 19 8 10 1018.3 1018.3 -
05/12:30am 20.1 - - - - SSE 15 19 8 10 1018.4 1018.4 -
05/12:00am 20.1 - - - - SSE 15 17 8 9 1018.5 1018.5 -
 
Date/Time
EST
Temp
°C
App
Temp
°C
Dew
Point
Rel
Hum
%
Delta-T
°C
Wind Press
QNH
hPa
Press
MSL
hPa
Rain
since 9 am
mm
Dir
 
Spd
km/h
Gust
km/h
Spd
kts
Gust
kts
04/11:30pm 20.6 - - - - SE 17 20 9 11 1018.6 1018.6 -
04/11:00pm 20.6 - - - - SSE 17 22 9 12 1018.8 1018.8 -
04/10:30pm 20.8 - - - - SSE 13 17 7 9 1018.7 1018.7 -
04/10:00pm 21.5 - - - - SE 19 28 10 15 1018.8 1018.8 -
04/09:30pm 22.1 - - - - ESE 26 32 14 17 1018.9 1018.9 -
04/09:00pm 21.3 - - - - SSE 15 32 8 17 1018.7 1018.7 -
04/08:30pm 22.1 - - - - ESE 22 28 12 15 1018.6 1018.6 -
04/08:00pm 22.1 - - - - ESE 24 30 13 16 1018.4 1018.4 -
04/07:30pm 22.2 - - - - E 20 26 11 14 1018.1 1018.1 -
04/07:00pm 22.0 - - - - E 17 20 9 11 1017.7 1017.7 -
04/06:30pm 21.9 - - - - E 15 19 8 10 1017.6 1017.6 -
04/06:00pm 22.0 - - - - E 15 20 8 11 1017.4 1017.4 -
04/05:30pm 21.7 - - - - E 19 22 10 12 1017.2 1017.2 -
04/05:00pm 21.6 - - - - E 26 30 14 16 1017.1 1017.1 -
04/04:30pm 21.6 - - - - E 26 28 14 15 1016.8 1016.8 -
04/04:00pm 21.7 - - - - ESE 19 22 10 12 1016.6 1016.6 -
04/03:30pm 21.6 - - - - E 22 26 12 14 1016.7 1016.7 -
04/03:00pm 21.4 - - - - E 20 24 11 13 1016.9 1016.9 -
04/02:30pm 21.3 - - - - E 24 28 13 15 1017.1 1017.1 -
04/02:00pm 21.1 - - - - ESE 20 24 11 13 1017.2 1017.2 -
04/01:30pm 21.3 - - - - E 15 20 8 11 1017.4 1017.4 -
04/01:00pm 21.3 - - - - SE 11 15 6 8 1017.9 1017.9 -
04/12:30pm 20.9 - - - - SE 13 17 7 9 1018.6 1018.6 -
04/12:00pm 20.4 - - - - SE 17 20 9 11 1019.2 1019.2 -
04/11:30am 20.1 - - - - SSE 17 22 9 12 1019.7 1019.7 -
04/11:00am 19.9 - - - - SSE 17 20 9 11 1019.9 1019.9 -
04/10:30am 19.5 - - - - SSE 15 20 8 11 1020.0 1020.0 -
04/10:00am 19.3 - - - - S 13 19 7 10 1020.1 1020.1 -
04/09:30am 18.8 - - - - S 15 20 8 11 1020.0 1020.0 -
04/09:00am 18.6 - - - - SSE 13 19 7 10 1020.0 1020.0 -
04/08:30am 17.8 - - - - WSW 11 19 6 10 1019.6 1019.6 -
04/08:00am 17.2 - - - - WNW 13 19 7 10 1019.4 1019.4 -
04/07:30am 17.0 - - - - WSW 9 17 5 9 1019.1 1019.1 -
04/07:00am 16.7 - - - - WSW 9 15 5 8 1018.9 1018.9 -
04/06:30am 15.9 - - - - W 9 17 5 9 1018.6 1018.6 -
04/06:00am 16.9 - - - - S 19 24 10 13 1018.4 1018.4 -
04/05:30am 17.1 - - - - S 24 32 13 17 1018.2 1018.2 -
04/05:00am 17.6 - - - - SSE 24 32 13 17 1018.2 1018.2 -
04/04:30am 17.8 - - - - SSE 26 33 14 18 1018.3 1018.3 -
04/04:00am 17.4 - - - - S 22 28 12 15 1018.3 1018.3 -
04/03:30am 17.3 - - - - S 20 26 11 14 1018.3 1018.3 -
04/03:00am 17.3 - - - - S 19 22 10 12 1018.3 1018.3 -
04/02:30am 17.5 - - - - S 19 24 10 13 1018.4 1018.4 -
04/02:00am 17.6 - - - - S 22 30 12 16 1018.6 1018.6 -
04/01:30am 18.2 - - - - S 24 30 13 16 1019.1 1019.1 -
04/01:00am 19.0 - - - - SSE 20 24 11 13 1019.2 1019.2 -
04/12:30am 18.7 - - - - SW 6 11 3 6 1019.3 1019.3 -
04/12:00am 19.6 - - - - SSE 13 20 7 11 1019.5 1019.5 -

Other Formats:

Comma delimited format used in spreadsheet applications
http://www.bom.gov.au/fwo/IDQ60801/IDQ60801.94297.axf

JavaScript Object Notation format (JSON) in row-major order
http://www.bom.gov.au/fwo/IDQ60801/IDQ60801.94297.json